sensor_id;sensor_type;location;lat;lon;timestamp;P1;durP1;ratioP1;P2;durP2;ratioP2
21356;SDS011;10836;53.068;18.234;2023-07-13T00:02:05;9.35;;;5.88;;
21356;SDS011;10836;53.068;18.234;2023-07-13T00:04:32;7.88;;;6.65;;
21356;SDS011;10836;53.068;18.234;2023-07-13T00:07:00;9.10;;;6.97;;
21356;SDS011;10836;53.068;18.234;2023-07-13T00:09:27;8.27;;;6.47;;
21356;SDS011;10836;53.068;18.234;2023-07-13T00:11:55;7.78;;;5.60;;
21356;SDS011;10836;53.068;18.234;2023-07-13T00:14:25;15.85;;;6.70;;
21356;SDS011;10836;53.068;18.234;2023-07-13T00:16:54;8.27;;;6.38;;
21356;SDS011;10836;53.068;18.234;2023-07-13T00:19:21;11.38;;;6.25;;
21356;SDS011;10836;53.068;18.234;2023-07-13T00:21:49;9.77;;;6.13;;
21356;SDS011;10836;53.068;18.234;2023-07-13T00:24:16;9.32;;;5.97;;
21356;SDS011;10836;53.068;18.234;2023-07-13T00:26:50;9.75;;;6.40;;
21356;SDS011;10836;53.068;18.234;2023-07-13T00:29:18;9.35;;;6.85;;
21356;SDS011;10836;53.068;18.234;2023-07-13T00:31:45;9.57;;;6.55;;
21356;SDS011;10836;53.068;18.234;2023-07-13T00:34:12;11.00;;;6.35;;
21356;SDS011;10836;53.068;18.234;2023-07-13T00:36:40;9.43;;;6.30;;
21356;SDS011;10836;53.068;18.234;2023-07-13T00:39:07;9.73;;;6.68;;
21356;SDS011;10836;53.068;18.234;2023-07-13T00:41:34;12.07;;;6.97;;
21356;SDS011;10836;53.068;18.234;2023-07-13T00:44:03;9.15;;;6.55;;
21356;SDS011;10836;53.068;18.234;2023-07-13T00:46:32;12.00;;;8.43;;
21356;SDS011;10836;53.068;18.234;2023-07-13T00:49:04;13.25;;;7.97;;
21356;SDS011;10836;53.068;18.234;2023-07-13T00:51:38;11.60;;;8.20;;
21356;SDS011;10836;53.068;18.234;2023-07-13T00:54:11;10.90;;;7.43;;
21356;SDS011;10836;53.068;18.234;2023-07-13T00:56:41;10.32;;;7.70;;
21356;SDS011;10836;53.068;18.234;2023-07-13T00:59:12;13.75;;;7.57;;
21356;SDS011;10836;53.068;18.234;2023-07-13T01:01:42;13.43;;;7.90;;
21356;SDS011;10836;53.068;18.234;2023-07-13T01:04:09;14.70;;;7.82;;
21356;SDS011;10836;53.068;18.234;2023-07-13T01:06:37;14.07;;;7.28;;
21356;SDS011;10836;53.068;18.234;2023-07-13T01:09:05;14.75;;;8.25;;
21356;SDS011;10836;53.068;18.234;2023-07-13T01:11:34;27.05;;;10.10;;
21356;SDS011;10836;53.068;18.234;2023-07-13T01:14:02;12.45;;;8.40;;
21356;SDS011;10836;53.068;18.234;2023-07-13T01:16:31;14.88;;;8.70;;
21356;SDS011;10836;53.068;18.234;2023-07-13T01:19:00;9.88;;;8.23;;
21356;SDS011;10836;53.068;18.234;2023-07-13T01:21:28;13.15;;;8.80;;
21356;SDS011;10836;53.068;18.234;2023-07-13T01:23:58;13.40;;;9.15;;
21356;SDS011;10836;53.068;18.234;2023-07-13T01:26:25;13.45;;;8.45;;
21356;SDS011;10836;53.068;18.234;2023-07-13T01:28:53;14.27;;;8.80;;
21356;SDS011;10836;53.068;18.234;2023-07-13T01:31:23;13.45;;;8.60;;
21356;SDS011;10836;53.068;18.234;2023-07-13T01:33:50;10.80;;;8.55;;
21356;SDS011;10836;53.068;18.234;2023-07-13T01:36:20;21.30;;;9.65;;
21356;SDS011;10836;53.068;18.234;2023-07-13T01:38:47;18.52;;;10.20;;
21356;SDS011;10836;53.068;18.234;2023-07-13T01:41:14;40.10;;;11.73;;
21356;SDS011;10836;53.068;18.234;2023-07-13T01:43:41;14.25;;;10.35;;
21356;SDS011;10836;53.068;18.234;2023-07-13T01:46:08;15.75;;;10.32;;
21356;SDS011;10836;53.068;18.234;2023-07-13T01:48:42;14.75;;;11.30;;
21356;SDS011;10836;53.068;18.234;2023-07-13T01:51:09;15.85;;;12.13;;
21356;SDS011;10836;53.068;18.234;2023-07-13T01:53:36;26.60;;;12.85;;
21356;SDS011;10836;53.068;18.234;2023-07-13T01:56:03;17.90;;;11.30;;
21356;SDS011;10836;53.068;18.234;2023-07-13T01:58:30;17.98;;;11.38;;
21356;SDS011;10836;53.068;18.234;2023-07-13T02:00:57;20.27;;;11.80;;
21356;SDS011;10836;53.068;18.234;2023-07-13T02:03:24;14.25;;;11.02;;
21356;SDS011;10836;53.068;18.234;2023-07-13T02:05:51;20.02;;;11.48;;
21356;SDS011;10836;53.068;18.234;2023-07-13T02:08:18;17.40;;;11.73;;
21356;SDS011;10836;53.068;18.234;2023-07-13T02:10:46;15.95;;;11.30;;
21356;SDS011;10836;53.068;18.234;2023-07-13T02:13:13;16.67;;;11.18;;
21356;SDS011;10836;53.068;18.234;2023-07-13T02:15:40;12.52;;;10.40;;
21356;SDS011;10836;53.068;18.234;2023-07-13T02:18:07;16.42;;;11.00;;
21356;SDS011;10836;53.068;18.234;2023-07-13T02:20:35;15.32;;;11.65;;
21356;SDS011;10836;53.068;18.234;2023-07-13T02:23:01;16.20;;;11.07;;
21356;SDS011;10836;53.068;18.234;2023-07-13T02:25:29;22.20;;;11.57;;
21356;SDS011;10836;53.068;18.234;2023-07-13T02:27:55;15.70;;;10.43;;
21356;SDS011;10836;53.068;18.234;2023-07-13T02:30:23;16.33;;;10.93;;
21356;SDS011;10836;53.068;18.234;2023-07-13T02:32:53;15.77;;;10.80;;
21356;SDS011;10836;53.068;18.234;2023-07-13T02:35:20;18.25;;;11.45;;
21356;SDS011;10836;53.068;18.234;2023-07-13T02:37:47;15.25;;;11.45;;
21356;SDS011;10836;53.068;18.234;2023-07-13T02:40:15;16.25;;;11.60;;
21356;SDS011;10836;53.068;18.234;2023-07-13T02:42:42;18.15;;;11.63;;
21356;SDS011;10836;53.068;18.234;2023-07-13T02:45:09;44.50;;;13.60;;
21356;SDS011;10836;53.068;18.234;2023-07-13T02:47:36;23.73;;;13.20;;
21356;SDS011;10836;53.068;18.234;2023-07-13T02:50:04;23.75;;;13.65;;
21356;SDS011;10836;53.068;18.234;2023-07-13T02:52:31;27.67;;;16.33;;
21356;SDS011;10836;53.068;18.234;2023-07-13T02:54:58;21.05;;;14.43;;
21356;SDS011;10836;53.068;18.234;2023-07-13T02:57:25;25.90;;;15.43;;
21356;SDS011;10836;53.068;18.234;2023-07-13T02:59:54;20.70;;;14.25;;
21356;SDS011;10836;53.068;18.234;2023-07-13T03:02:21;21.55;;;13.88;;
21356;SDS011;10836;53.068;18.234;2023-07-13T03:04:48;16.90;;;13.00;;
21356;SDS011;10836;53.068;18.234;2023-07-13T03:07:15;21.08;;;15.00;;
21356;SDS011;10836;53.068;18.234;2023-07-13T03:09:45;20.52;;;15.55;;
21356;SDS011;10836;53.068;18.234;2023-07-13T03:12:12;19.83;;;14.90;;
21356;SDS011;10836;53.068;18.234;2023-07-13T03:14:39;26.08;;;15.45;;
21356;SDS011;10836;53.068;18.234;2023-07-13T03:17:06;20.08;;;14.23;;
21356;SDS011;10836;53.068;18.234;2023-07-13T03:19:38;21.58;;;14.38;;
21356;SDS011;10836;53.068;18.234;2023-07-13T03:22:05;22.83;;;14.13;;
21356;SDS011;10836;53.068;18.234;2023-07-13T03:24:34;23.77;;;14.75;;
21356;SDS011;10836;53.068;18.234;2023-07-13T03:27:05;20.55;;;14.73;;
21356;SDS011;10836;53.068;18.234;2023-07-13T03:29:36;33.08;;;16.40;;
21356;SDS011;10836;53.068;18.234;2023-07-13T03:32:04;70.30;;;19.25;;
21356;SDS011;10836;53.068;18.234;2023-07-13T03:34:32;25.08;;;16.40;;
21356;SDS011;10836;53.068;18.234;2023-07-13T03:36:59;32.78;;;19.70;;
21356;SDS011;10836;53.068;18.234;2023-07-13T03:39:27;26.08;;;18.02;;
21356;SDS011;10836;53.068;18.234;2023-07-13T03:41:56;25.13;;;17.92;;
21356;SDS011;10836;53.068;18.234;2023-07-13T03:44:23;30.45;;;18.88;;
21356;SDS011;10836;53.068;18.234;2023-07-13T03:46:53;25.10;;;17.23;;
21356;SDS011;10836;53.068;18.234;2023-07-13T03:49:21;23.63;;;16.73;;
21356;SDS011;10836;53.068;18.234;2023-07-13T03:51:48;23.17;;;15.98;;
21356;SDS011;10836;53.068;18.234;2023-07-13T03:54:19;20.40;;;14.90;;
21356;SDS011;10836;53.068;18.234;2023-07-13T03:56:46;20.85;;;15.07;;
21356;SDS011;10836;53.068;18.234;2023-07-13T03:59:13;21.25;;;14.20;;
21356;SDS011;10836;53.068;18.234;2023-07-13T04:01:40;25.63;;;15.63;;
21356;SDS011;10836;53.068;18.234;2023-07-13T04:04:07;21.25;;;14.93;;
21356;SDS011;10836;53.068;18.234;2023-07-13T04:06:34;24.45;;;15.07;;
21356;SDS011;10836;53.068;18.234;2023-07-13T04:09:02;21.33;;;15.55;;
21356;SDS011;10836;53.068;18.234;2023-07-13T04:11:32;23.15;;;15.13;;
21356;SDS011;10836;53.068;18.234;2023-07-13T04:14:00;23.67;;;15.25;;
21356;SDS011;10836;53.068;18.234;2023-07-13T04:16:27;25.17;;;15.45;;
21356;SDS011;10836;53.068;18.234;2023-07-13T04:18:55;21.33;;;15.82;;
21356;SDS011;10836;53.068;18.234;2023-07-13T04:21:27;20.23;;;15.02;;
21356;SDS011;10836;53.068;18.234;2023-07-13T04:23:55;21.10;;;16.13;;
21356;SDS011;10836;53.068;18.234;2023-07-13T04:26:23;26.67;;;18.30;;
21356;SDS011;10836;53.068;18.234;2023-07-13T04:28:50;21.80;;;17.33;;
21356;SDS011;10836;53.068;18.234;2023-07-13T04:31:18;20.67;;;16.55;;
21356;SDS011;10836;53.068;18.234;2023-07-13T04:33:45;21.23;;;15.80;;
21356;SDS011;10836;53.068;18.234;2023-07-13T04:36:14;21.00;;;16.20;;
21356;SDS011;10836;53.068;18.234;2023-07-13T04:38:42;24.63;;;15.73;;
21356;SDS011;10836;53.068;18.234;2023-07-13T04:41:09;21.98;;;16.35;;
21356;SDS011;10836;53.068;18.234;2023-07-13T04:43:36;19.75;;;15.70;;
21356;SDS011;10836;53.068;18.234;2023-07-13T04:46:07;20.90;;;15.30;;
21356;SDS011;10836;53.068;18.234;2023-07-13T04:48:37;24.48;;;17.33;;
21356;SDS011;10836;53.068;18.234;2023-07-13T04:51:04;24.27;;;17.75;;
21356;SDS011;10836;53.068;18.234;2023-07-13T04:53:31;19.58;;;16.73;;
21356;SDS011;10836;53.068;18.234;2023-07-13T04:55:59;26.10;;;19.27;;
21356;SDS011;10836;53.068;18.234;2023-07-13T04:58:27;23.98;;;17.67;;
21356;SDS011;10836;53.068;18.234;2023-07-13T05:00:59;21.27;;;16.73;;
21356;SDS011;10836;53.068;18.234;2023-07-13T05:03:27;23.55;;;16.27;;
21356;SDS011;10836;53.068;18.234;2023-07-13T05:05:59;23.92;;;16.27;;
21356;SDS011;10836;53.068;18.234;2023-07-13T05:08:29;20.15;;;15.68;;
21356;SDS011;10836;53.068;18.234;2023-07-13T05:10:56;19.45;;;15.18;;
21356;SDS011;10836;53.068;18.234;2023-07-13T05:13:23;18.83;;;14.85;;
21356;SDS011;10836;53.068;18.234;2023-07-13T05:16:00;25.73;;;14.75;;
21356;SDS011;10836;53.068;18.234;2023-07-13T05:18:30;18.08;;;13.63;;
21356;SDS011;10836;53.068;18.234;2023-07-13T05:20:58;19.35;;;15.27;;
21356;SDS011;10836;53.068;18.234;2023-07-13T05:23:30;21.88;;;14.52;;
21356;SDS011;10836;53.068;18.234;2023-07-13T05:25:58;23.67;;;17.10;;
21356;SDS011;10836;53.068;18.234;2023-07-13T05:28:26;22.13;;;14.95;;
21356;SDS011;10836;53.068;18.234;2023-07-13T05:30:55;18.08;;;14.65;;
21356;SDS011;10836;53.068;18.234;2023-07-13T05:33:22;22.33;;;16.10;;
21356;SDS011;10836;53.068;18.234;2023-07-13T05:35:50;25.88;;;16.38;;
21356;SDS011;10836;53.068;18.234;2023-07-13T05:38:17;27.15;;;17.45;;
21356;SDS011;10836;53.068;18.234;2023-07-13T05:40:45;25.65;;;16.88;;
21356;SDS011;10836;53.068;18.234;2023-07-13T05:43:12;20.80;;;15.73;;
21356;SDS011;10836;53.068;18.234;2023-07-13T05:45:40;17.98;;;13.77;;
21356;SDS011;10836;53.068;18.234;2023-07-13T05:48:07;18.08;;;13.98;;
21356;SDS011;10836;53.068;18.234;2023-07-13T05:50:34;19.30;;;13.30;;
21356;SDS011;10836;53.068;18.234;2023-07-13T05:53:01;17.48;;;12.55;;
21356;SDS011;10836;53.068;18.234;2023-07-13T05:55:28;13.25;;;10.40;;
21356;SDS011;10836;53.068;18.234;2023-07-13T05:57:55;23.90;;;13.90;;
21356;SDS011;10836;53.068;18.234;2023-07-13T06:00:24;18.08;;;12.25;;
21356;SDS011;10836;53.068;18.234;2023-07-13T06:02:52;17.95;;;12.40;;
21356;SDS011;10836;53.068;18.234;2023-07-13T06:05:20;17.77;;;11.10;;
21356;SDS011;10836;53.068;18.234;2023-07-13T06:07:47;17.05;;;10.35;;
21356;SDS011;10836;53.068;18.234;2023-07-13T06:10:14;14.25;;;7.78;;
21356;SDS011;10836;53.068;18.234;2023-07-13T06:12:41;11.52;;;6.53;;
21356;SDS011;10836;53.068;18.234;2023-07-13T06:15:07;10.45;;;5.03;;
21356;SDS011;10836;53.068;18.234;2023-07-13T06:17:35;8.10;;;3.70;;
21356;SDS011;10836;53.068;18.234;2023-07-13T06:20:02;9.73;;;4.20;;
21356;SDS011;10836;53.068;18.234;2023-07-13T06:22:29;8.07;;;3.90;;
21356;SDS011;10836;53.068;18.234;2023-07-13T06:24:56;8.45;;;3.33;;
21356;SDS011;10836;53.068;18.234;2023-07-13T06:27:23;11.57;;;3.72;;
21356;SDS011;10836;53.068;18.234;2023-07-13T06:29:50;6.50;;;2.90;;
21356;SDS011;10836;53.068;18.234;2023-07-13T06:32:18;10.32;;;3.20;;
21356;SDS011;10836;53.068;18.234;2023-07-13T06:34:44;7.75;;;2.47;;
21356;SDS011;10836;53.068;18.234;2023-07-13T06:37:12;6.70;;;2.63;;
21356;SDS011;10836;53.068;18.234;2023-07-13T06:39:38;9.15;;;2.70;;
21356;SDS011;10836;53.068;18.234;2023-07-13T06:42:06;9.38;;;2.97;;
21356;SDS011;10836;53.068;18.234;2023-07-13T06:44:33;9.13;;;2.55;;
21356;SDS011;10836;53.068;18.234;2023-07-13T06:47:00;8.18;;;2.63;;
21356;SDS011;10836;53.068;18.234;2023-07-13T06:49:27;6.80;;;2.70;;
21356;SDS011;10836;53.068;18.234;2023-07-13T06:51:54;10.43;;;3.03;;
21356;SDS011;10836;53.068;18.234;2023-07-13T06:54:21;9.98;;;2.55;;
21356;SDS011;10836;53.068;18.234;2023-07-13T06:56:48;8.70;;;2.40;;
21356;SDS011;10836;53.068;18.234;2023-07-13T06:59:15;6.90;;;2.10;;
21356;SDS011;10836;53.068;18.234;2023-07-13T07:01:42;9.55;;;2.58;;
21356;SDS011;10836;53.068;18.234;2023-07-13T07:04:08;5.80;;;2.30;;
21356;SDS011;10836;53.068;18.234;2023-07-13T07:06:36;8.90;;;2.67;;
21356;SDS011;10836;53.068;18.234;2023-07-13T07:09:03;9.98;;;2.85;;
21356;SDS011;10836;53.068;18.234;2023-07-13T07:11:30;5.75;;;2.35;;
21356;SDS011;10836;53.068;18.234;2023-07-13T07:13:57;7.20;;;2.50;;
21356;SDS011;10836;53.068;18.234;2023-07-13T07:16:24;9.75;;;2.92;;
21356;SDS011;10836;53.068;18.234;2023-07-13T07:18:51;11.38;;;2.90;;
21356;SDS011;10836;53.068;18.234;2023-07-13T07:21:18;12.38;;;3.50;;
21356;SDS011;10836;53.068;18.234;2023-07-13T07:23:45;10.90;;;2.80;;
21356;SDS011;10836;53.068;18.234;2023-07-13T07:26:13;7.57;;;2.28;;
21356;SDS011;10836;53.068;18.234;2023-07-13T07:28:39;6.80;;;2.60;;
21356;SDS011;10836;53.068;18.234;2023-07-13T07:31:12;10.38;;;3.17;;
21356;SDS011;10836;53.068;18.234;2023-07-13T07:33:42;8.23;;;2.45;;
21356;SDS011;10836;53.068;18.234;2023-07-13T07:36:10;6.13;;;2.50;;
21356;SDS011;10836;53.068;18.234;2023-07-13T07:38:41;11.05;;;3.03;;
21356;SDS011;10836;53.068;18.234;2023-07-13T07:41:08;5.80;;;2.35;;
21356;SDS011;10836;53.068;18.234;2023-07-13T07:43:38;7.90;;;2.67;;
21356;SDS011;10836;53.068;18.234;2023-07-13T07:46:05;9.43;;;2.45;;
21356;SDS011;10836;53.068;18.234;2023-07-13T07:48:33;7.55;;;2.28;;
21356;SDS011;10836;53.068;18.234;2023-07-13T07:51:00;9.13;;;2.70;;
21356;SDS011;10836;53.068;18.234;2023-07-13T07:53:27;9.00;;;3.05;;
21356;SDS011;10836;53.068;18.234;2023-07-13T07:55:54;10.27;;;2.30;;
21356;SDS011;10836;53.068;18.234;2023-07-13T07:58:24;9.02;;;2.40;;
21356;SDS011;10836;53.068;18.234;2023-07-13T08:00:54;11.60;;;2.80;;
21356;SDS011;10836;53.068;18.234;2023-07-13T08:03:32;8.38;;;2.30;;
21356;SDS011;10836;53.068;18.234;2023-07-13T08:06:02;8.88;;;2.80;;
21356;SDS011;10836;53.068;18.234;2023-07-13T08:08:32;12.02;;;2.75;;
21356;SDS011;10836;53.068;18.234;2023-07-13T08:11:04;12.68;;;2.45;;
21356;SDS011;10836;53.068;18.234;2023-07-13T08:13:53;13.93;;;2.65;;
21356;SDS011;10836;53.068;18.234;2023-07-13T08:16:22;6.00;;;2.40;;
21356;SDS011;10836;53.068;18.234;2023-07-13T08:18:50;7.88;;;2.17;;
21356;SDS011;10836;53.068;18.234;2023-07-13T08:21:17;11.10;;;2.60;;
21356;SDS011;10836;53.068;18.234;2023-07-13T08:23:46;10.68;;;2.58;;
21356;SDS011;10836;53.068;18.234;2023-07-13T08:26:13;11.13;;;2.90;;
21356;SDS011;10836;53.068;18.234;2023-07-13T08:28:41;7.57;;;2.10;;
21356;SDS011;10836;53.068;18.234;2023-07-13T08:31:08;9.15;;;2.53;;
21356;SDS011;10836;53.068;18.234;2023-07-13T08:33:37;6.88;;;2.00;;
21356;SDS011;10836;53.068;18.234;2023-07-13T08:36:05;7.70;;;2.17;;
21356;SDS011;10836;53.068;18.234;2023-07-13T08:38:32;7.90;;;2.40;;
21356;SDS011;10836;53.068;18.234;2023-07-13T08:41:02;11.30;;;2.70;;
21356;SDS011;10836;53.068;18.234;2023-07-13T08:43:37;9.50;;;2.63;;
21356;SDS011;10836;53.068;18.234;2023-07-13T08:48:43;14.18;;;1.90;;
21356;SDS011;10836;53.068;18.234;2023-07-13T08:54:00;6.75;;;2.53;;
21356;SDS011;10836;53.068;18.234;2023-07-13T08:56:30;6.53;;;2.30;;
21356;SDS011;10836;53.068;18.234;2023-07-13T08:59:00;6.10;;;2.20;;
21356;SDS011;10836;53.068;18.234;2023-07-13T09:01:45;5.38;;;2.17;;
21356;SDS011;10836;53.068;18.234;2023-07-13T09:04:22;8.13;;;2.15;;
21356;SDS011;10836;53.068;18.234;2023-07-13T09:07:07;7.57;;;2.35;;
21356;SDS011;10836;53.068;18.234;2023-07-13T09:15:17;6.72;;;2.50;;
21356;SDS011;10836;53.068;18.234;2023-07-13T09:18:23;7.32;;;2.67;;
21356;SDS011;10836;53.068;18.234;2023-07-13T09:20:59;10.30;;;2.63;;
21356;SDS011;10836;53.068;18.234;2023-07-13T09:23:32;7.43;;;2.35;;
21356;SDS011;10836;53.068;18.234;2023-07-13T09:26:11;8.13;;;2.15;;
21356;SDS011;10836;53.068;18.234;2023-07-13T09:28:46;6.07;;;2.20;;
21356;SDS011;10836;53.068;18.234;2023-07-13T09:31:17;10.38;;;2.55;;
21356;SDS011;10836;53.068;18.234;2023-07-13T09:33:50;6.32;;;2.00;;
21356;SDS011;10836;53.068;18.234;2023-07-13T09:36:18;5.15;;;1.98;;
21356;SDS011;10836;53.068;18.234;2023-07-13T09:39:37;7.90;;;2.35;;
21356;SDS011;10836;53.068;18.234;2023-07-13T09:44:50;7.30;;;2.25;;
21356;SDS011;10836;53.068;18.234;2023-07-13T09:47:23;10.20;;;2.72;;
21356;SDS011;10836;53.068;18.234;2023-07-13T09:49:57;7.95;;;2.92;;
21356;SDS011;10836;53.068;18.234;2023-07-13T09:55:34;21.75;;;5.20;;
21356;SDS011;10836;53.068;18.234;2023-07-13T09:58:13;20.77;;;5.40;;
21356;SDS011;10836;53.068;18.234;2023-07-13T10:00:43;22.55;;;6.10;;
21356;SDS011;10836;53.068;18.234;2023-07-13T10:03:20;18.13;;;4.90;;
21356;SDS011;10836;53.068;18.234;2023-07-13T10:05:50;17.48;;;5.40;;
21356;SDS011;10836;53.068;18.234;2023-07-13T10:08:20;15.15;;;5.80;;
21356;SDS011;10836;53.068;18.234;2023-07-13T10:10:57;16.55;;;5.57;;
21356;SDS011;10836;53.068;18.234;2023-07-13T10:13:36;11.75;;;3.10;;
21356;SDS011;10836;53.068;18.234;2023-07-13T10:16:08;6.72;;;3.05;;
21356;SDS011;10836;53.068;18.234;2023-07-13T10:18:38;7.07;;;3.10;;
21356;SDS011;10836;53.068;18.234;2023-07-13T10:21:17;7.28;;;3.30;;
21356;SDS011;10836;53.068;18.234;2023-07-13T10:24:44;8.82;;;3.67;;
21356;SDS011;10836;53.068;18.234;2023-07-13T10:26:54;11.48;;;4.95;;
21356;SDS011;10836;53.068;18.234;2023-07-13T10:29:25;9.80;;;4.80;;
21356;SDS011;10836;53.068;18.234;2023-07-13T10:31:55;9.52;;;3.95;;
21356;SDS011;10836;53.068;18.234;2023-07-13T10:34:24;11.68;;;5.03;;
21356;SDS011;10836;53.068;18.234;2023-07-13T10:36:51;9.70;;;4.22;;
21356;SDS011;10836;53.068;18.234;2023-07-13T10:39:20;12.20;;;4.60;;
21356;SDS011;10836;53.068;18.234;2023-07-13T10:41:59;13.60;;;5.15;;
21356;SDS011;10836;53.068;18.234;2023-07-13T10:44:41;10.88;;;4.63;;
21356;SDS011;10836;53.068;18.234;2023-07-13T10:47:11;8.73;;;3.88;;
21356;SDS011;10836;53.068;18.234;2023-07-13T10:49:41;8.63;;;4.30;;
21356;SDS011;10836;53.068;18.234;2023-07-13T11:03:25;11.00;;;4.47;;
21356;SDS011;10836;53.068;18.234;2023-07-13T11:06:05;12.68;;;4.82;;
21356;SDS011;10836;53.068;18.234;2023-07-13T11:08:51;10.02;;;4.45;;
21356;SDS011;10836;53.068;18.234;2023-07-13T11:14:03;9.38;;;4.47;;
21356;SDS011;10836;53.068;18.234;2023-07-13T11:16:36;9.40;;;4.40;;
21356;SDS011;10836;53.068;18.234;2023-07-13T11:27:34;6.78;;;2.90;;
21356;SDS011;10836;53.068;18.234;2023-07-13T11:33:45;7.05;;;2.90;;
21356;SDS011;10836;53.068;18.234;2023-07-13T11:38:17;7.28;;;2.38;;
21356;SDS011;10836;53.068;18.234;2023-07-13T11:40:47;5.03;;;2.28;;
21356;SDS011;10836;53.068;18.234;2023-07-13T11:43:21;3.85;;;1.85;;
21356;SDS011;10836;53.068;18.234;2023-07-13T11:45:50;10.15;;;2.65;;
21356;SDS011;10836;53.068;18.234;2023-07-13T11:48:21;4.75;;;2.15;;
21356;SDS011;10836;53.068;18.234;2023-07-13T11:51:01;4.75;;;2.20;;
21356;SDS011;10836;53.068;18.234;2023-07-13T11:53:44;6.95;;;2.45;;
21356;SDS011;10836;53.068;18.234;2023-07-13T11:56:12;4.20;;;2.50;;
21356;SDS011;10836;53.068;18.234;2023-07-13T11:58:40;7.93;;;2.35;;
21356;SDS011;10836;53.068;18.234;2023-07-13T12:01:24;9.82;;;2.60;;
21356;SDS011;10836;53.068;18.234;2023-07-13T12:04:00;9.73;;;2.83;;
21356;SDS011;10836;53.068;18.234;2023-07-13T12:06:31;11.35;;;3.20;;
21356;SDS011;10836;53.068;18.234;2023-07-13T12:09:00;5.22;;;2.53;;
21356;SDS011;10836;53.068;18.234;2023-07-13T12:11:30;6.18;;;2.47;;
21356;SDS011;10836;53.068;18.234;2023-07-13T12:14:01;9.60;;;3.13;;
21356;SDS011;10836;53.068;18.234;2023-07-13T12:16:29;5.55;;;2.40;;
21356;SDS011;10836;53.068;18.234;2023-07-13T12:19:00;5.07;;;2.58;;
21356;SDS011;10836;53.068;18.234;2023-07-13T12:21:30;8.00;;;2.10;;
21356;SDS011;10836;53.068;18.234;2023-07-13T12:24:04;7.80;;;1.98;;
21356;SDS011;10836;53.068;18.234;2023-07-13T12:26:40;4.20;;;1.80;;
21356;SDS011;10836;53.068;18.234;2023-07-13T12:29:07;4.30;;;2.00;;
21356;SDS011;10836;53.068;18.234;2023-07-13T12:31:43;5.70;;;2.10;;
21356;SDS011;10836;53.068;18.234;2023-07-13T12:34:20;5.50;;;1.88;;
21356;SDS011;10836;53.068;18.234;2023-07-13T12:36:49;6.18;;;2.10;;
21356;SDS011;10836;53.068;18.234;2023-07-13T12:44:47;5.50;;;1.90;;
21356;SDS011;10836;53.068;18.234;2023-07-13T12:47:15;9.23;;;1.90;;
21356;SDS011;10836;53.068;18.234;2023-07-13T12:49:44;4.55;;;1.65;;
21356;SDS011;10836;53.068;18.234;2023-07-13T12:52:21;5.50;;;1.55;;
21356;SDS011;10836;53.068;18.234;2023-07-13T12:55:03;4.72;;;2.13;;
21356;SDS011;10836;53.068;18.234;2023-07-13T12:57:41;6.00;;;1.88;;
21356;SDS011;10836;53.068;18.234;2023-07-13T13:00:54;5.38;;;1.80;;
21356;SDS011;10836;53.068;18.234;2023-07-13T13:03:07;6.30;;;1.80;;
21356;SDS011;10836;53.068;18.234;2023-07-13T13:06:02;4.65;;;1.60;;
21356;SDS011;10836;53.068;18.234;2023-07-13T13:08:34;4.32;;;1.70;;
21356;SDS011;10836;53.068;18.234;2023-07-13T13:11:02;5.80;;;2.10;;
21356;SDS011;10836;53.068;18.234;2023-07-13T13:13:30;6.65;;;1.77;;
21356;SDS011;10836;53.068;18.234;2023-07-13T13:16:01;6.00;;;2.10;;
21356;SDS011;10836;53.068;18.234;2023-07-13T13:18:29;7.05;;;2.72;;
21356;SDS011;10836;53.068;18.234;2023-07-13T13:20:57;7.70;;;2.63;;
21356;SDS011;10836;53.068;18.234;2023-07-13T13:23:24;7.55;;;2.75;;
21356;SDS011;10836;53.068;18.234;2023-07-13T13:25:51;10.73;;;3.88;;
21356;SDS011;10836;53.068;18.234;2023-07-13T13:28:19;10.00;;;3.25;;
21356;SDS011;10836;53.068;18.234;2023-07-13T13:30:48;12.57;;;4.22;;
21356;SDS011;10836;53.068;18.234;2023-07-13T13:33:18;7.15;;;3.70;;
21356;SDS011;10836;53.068;18.234;2023-07-13T13:35:47;7.70;;;3.58;;
21356;SDS011;10836;53.068;18.234;2023-07-13T13:38:19;9.27;;;4.18;;
21356;SDS011;10836;53.068;18.234;2023-07-13T13:40:50;8.05;;;4.00;;
21356;SDS011;10836;53.068;18.234;2023-07-13T13:43:18;7.28;;;3.58;;
21356;SDS011;10836;53.068;18.234;2023-07-13T13:45:56;9.43;;;3.83;;
21356;SDS011;10836;53.068;18.234;2023-07-13T13:48:31;9.65;;;3.45;;
21356;SDS011;10836;53.068;18.234;2023-07-13T13:51:00;5.32;;;3.28;;
21356;SDS011;10836;53.068;18.234;2023-07-13T13:53:33;8.32;;;3.97;;
21356;SDS011;10836;53.068;18.234;2023-07-13T13:56:00;6.07;;;3.20;;
21356;SDS011;10836;53.068;18.234;2023-07-13T13:58:27;8.40;;;3.40;;
21356;SDS011;10836;53.068;18.234;2023-07-13T14:00:54;8.63;;;3.38;;
21356;SDS011;10836;53.068;18.234;2023-07-13T14:03:21;7.85;;;3.22;;
21356;SDS011;10836;53.068;18.234;2023-07-13T14:05:49;6.75;;;3.10;;
21356;SDS011;10836;53.068;18.234;2023-07-13T14:08:17;7.30;;;2.88;;
21356;SDS011;10836;53.068;18.234;2023-07-13T14:10:46;5.25;;;2.67;;
21356;SDS011;10836;53.068;18.234;2023-07-13T14:13:19;8.65;;;3.28;;
21356;SDS011;10836;53.068;18.234;2023-07-13T14:15:53;5.85;;;2.45;;
21356;SDS011;10836;53.068;18.234;2023-07-13T14:18:21;4.78;;;2.40;;
21356;SDS011;10836;53.068;18.234;2023-07-13T14:20:48;5.63;;;2.75;;
21356;SDS011;10836;53.068;18.234;2023-07-13T14:23:15;12.57;;;2.83;;
21356;SDS011;10836;53.068;18.234;2023-07-13T14:25:45;4.90;;;2.38;;
21356;SDS011;10836;53.068;18.234;2023-07-13T14:28:23;9.32;;;2.40;;
21356;SDS011;10836;53.068;18.234;2023-07-13T14:30:52;7.25;;;2.90;;
21356;SDS011;10836;53.068;18.234;2023-07-13T14:33:21;5.60;;;2.13;;
21356;SDS011;10836;53.068;18.234;2023-07-13T14:35:49;6.78;;;2.30;;
21356;SDS011;10836;53.068;18.234;2023-07-13T14:38:19;4.22;;;2.17;;
21356;SDS011;10836;53.068;18.234;2023-07-13T14:40:47;3.63;;;2.13;;
21356;SDS011;10836;53.068;18.234;2023-07-13T14:43:14;6.90;;;2.28;;
21356;SDS011;10836;53.068;18.234;2023-07-13T14:45:44;5.68;;;2.38;;
21356;SDS011;10836;53.068;18.234;2023-07-13T14:48:17;4.50;;;2.25;;
21356;SDS011;10836;53.068;18.234;2023-07-13T14:50:46;8.02;;;2.30;;
21356;SDS011;10836;53.068;18.234;2023-07-13T14:53:14;7.03;;;2.15;;
21356;SDS011;10836;53.068;18.234;2023-07-13T14:55:41;6.68;;;2.60;;
21356;SDS011;10836;53.068;18.234;2023-07-13T14:58:09;5.07;;;2.10;;
21356;SDS011;10836;53.068;18.234;2023-07-13T15:00:37;5.30;;;2.20;;
21356;SDS011;10836;53.068;18.234;2023-07-13T15:03:04;5.25;;;2.30;;
21356;SDS011;10836;53.068;18.234;2023-07-13T15:05:35;2.95;;;2.05;;
21356;SDS011;10836;53.068;18.234;2023-07-13T15:08:02;4.57;;;1.73;;
21356;SDS011;10836;53.068;18.234;2023-07-13T15:10:31;4.75;;;1.92;;
21356;SDS011;10836;53.068;18.234;2023-07-13T15:13:00;4.93;;;2.15;;
21356;SDS011;10836;53.068;18.234;2023-07-13T15:15:38;6.85;;;2.30;;
21356;SDS011;10836;53.068;18.234;2023-07-13T15:18:09;6.93;;;2.47;;
21356;SDS011;10836;53.068;18.234;2023-07-13T15:20:38;4.47;;;2.03;;
21356;SDS011;10836;53.068;18.234;2023-07-13T15:23:05;4.78;;;2.05;;
21356;SDS011;10836;53.068;18.234;2023-07-13T15:25:33;5.00;;;2.08;;
21356;SDS011;10836;53.068;18.234;2023-07-13T15:28:00;4.25;;;2.22;;
21356;SDS011;10836;53.068;18.234;2023-07-13T15:30:30;4.90;;;2.03;;